Penicuik, United Kingdom

8:29 PM GMT on January 25, 2015 (GMT +0000)
Queensferry Road | Change Station
CLOSE
Current Station
Personal Weather Station
Location: Edinburgh, LOTHIANS
Elevation: 157 ft
Nearby Weather Stations

Elev 157 ft 55.95 °N, 3.23 °W | Updated 2 seconds ago

Light Rain
Light Rain
48.0 °F
Feels Like 47 °F
N
4.0
Wind Variable Wind from WNW
Gusts 16.0 mph

Today
High -- | Low -- °F
--% Chance of Precip.
Yesterday
High -- | Low -- °F
Precip. -- in
8:20 AM 4:31 PM
Waxing Crescent, 35% visible
Pressure 29.98 in
Visibility 6.2 miles
Clouds Scattered Clouds 900 ft
Mostly Cloudy 1400 ft
Mostly Cloudy 1900 ft
Windchill 47 °F
Dew Point 46 °F
Humidity 93%
Rainfall 0.02 in
Snow Depth Not available.
UV 0 out of 12
Pollen Not available.
Air Quality Not available.
Flu Activity Not available.
METAR EGPH 252020Z 27014KT 230V320 9999 -RA SCT009TCU BKN014 BKN019 09/07 Q1015

More Conditions Fewer Conditions

Pressure 29.98 in
Visibility 6.2 miles
Clouds Scattered Clouds 900 ft
Mostly Cloudy 1400 ft
Mostly Cloudy 1900 ft
Windchill 47 °F
Dew Point 46 °F
Humidity 93%
Rainfall 0.02 in
Snow Depth Not available.
UV 0 out of 12
Pollen Not available.
Air Quality Not available.
Flu Activity Not available.
METAR EGPH 252020Z 27014KT 230V320 9999 -RA SCT009TCU BKN014 BKN019 09/07 Q1015

More Conditions Fewer Conditions

10-Day Weather Forecast

Almanac

Astronomy

Jan. 25, 2015 Rise Set
Actual Time
Civil Twilight
Nautical Twilight
Astronomical Twilight
Moon
Length of Visible Light
Length of Day
Tomorrow will be .
, % of the Moon is Illuminated

Today's Extremes

Country Highs Country Lows

Community

WunderPhotos

Upload Photos

1,790,038 photos uploaded!

WunderBlogs® & News

Nearby

Air Quality

  Air Quality AQ Index Pollutant
Not available.

Snow Depth

Station Depth Elevation

Earthquake Activity

City Distance Mag. Time & Date
Minimum magnitude displayed is 2.5.

Coastal Water Temperatures

Place Temperature

Nearby Weather Stations